createdAt,value
2022-10-13T00:03:35.351Z,11.11
2022-10-13T00:09:07.642Z,11.10
2022-10-13T00:14:38.934Z,11.08
2022-10-13T00:20:11.162Z,11.06
2022-10-13T00:25:44.357Z,11.03
2022-10-13T00:31:22.811Z,11.00
2022-10-13T00:36:53.753Z,10.99
2022-10-13T00:42:26.876Z,10.95
2022-10-13T00:47:59.506Z,10.93
2022-10-13T00:53:33.570Z,10.92
2022-10-13T00:59:09.097Z,10.89
2022-10-13T01:04:43.808Z,10.86
2022-10-13T01:10:24.959Z,10.83
2022-10-13T01:16:13.825Z,10.77
2022-10-13T01:22:02.857Z,10.75
2022-10-13T01:27:37.517Z,10.72
2022-10-13T01:33:20.672Z,10.67
2022-10-13T01:39:06.710Z,10.65
2022-10-13T01:44:41.645Z,10.62
2022-10-13T01:50:14.458Z,10.56
2022-10-13T01:55:57.606Z,10.49
2022-10-13T02:01:28.480Z,10.47
2022-10-13T02:07:08.905Z,10.41
2022-10-13T02:12:49.385Z,10.36
2022-10-13T02:18:24.120Z,10.32
2022-10-13T02:23:55.360Z,10.30
2022-10-13T02:29:26.517Z,10.29
2022-10-13T02:34:57.805Z,10.25
2022-10-13T02:40:29.181Z,10.21
2022-10-13T02:46:00.448Z,10.17
2022-10-13T02:51:36.200Z,10.16
2022-10-13T02:57:10.260Z,10.14
2022-10-13T03:02:41.249Z,10.10
2022-10-13T03:08:12.465Z,10.08
2022-10-13T03:13:44.640Z,10.06
2022-10-13T03:19:15.723Z,10.04
2022-10-13T03:24:46.672Z,10.00
2022-10-13T03:30:17.616Z,9.99
2022-10-13T03:35:48.767Z,9.98
2022-10-13T03:41:19.988Z,9.95
2022-10-13T03:46:54.111Z,9.92
2022-10-13T03:52:25.191Z,9.89
2022-10-13T03:57:56.411Z,9.88
2022-10-13T04:03:27.982Z,9.87
2022-10-13T04:08:59.488Z,9.84
2022-10-13T04:14:30.424Z,9.81
2022-10-13T04:20:09.620Z,9.78
2022-10-13T04:25:41.228Z,9.77
2022-10-13T04:31:13.928Z,9.75
2022-10-13T04:36:45.321Z,9.71
2022-10-13T04:42:16.673Z,9.68
2022-10-13T04:47:47.678Z,9.66
2022-10-13T04:53:20.754Z,9.64
2022-10-13T04:58:51.707Z,9.67
2022-10-13T05:04:23.170Z,9.70
2022-10-13T05:09:54.625Z,9.67
2022-10-13T05:15:25.523Z,9.63
2022-10-13T05:20:56.728Z,9.60
2022-10-13T05:26:29.403Z,9.61
2022-10-13T05:32:00.961Z,9.59
2022-10-13T05:37:32.129Z,9.57
2022-10-13T05:43:02.930Z,9.59
2022-10-13T05:48:34.782Z,9.56
2022-10-13T05:54:17.836Z,9.54
2022-10-13T06:00:16.255Z,9.51
2022-10-13T06:05:47.844Z,9.51
2022-10-13T06:11:19.122Z,9.48
2022-10-13T06:16:50.363Z,9.46
2022-10-13T06:22:22.575Z,9.47
2022-10-13T06:27:53.923Z,9.51
2022-10-13T06:33:25.411Z,9.54
2022-10-13T06:38:56.591Z,9.62
2022-10-13T06:44:28.151Z,9.68
2022-10-13T06:50:06.032Z,9.67
2022-10-13T06:55:37.090Z,9.78
2022-10-13T07:01:09.486Z,9.79
2022-10-13T07:06:40.479Z,9.85
2022-10-13T07:12:13.903Z,9.93
2022-10-13T07:17:45.113Z,9.93
2022-10-13T07:23:16.472Z,9.93
2022-10-13T07:28:47.388Z,10.00
2022-10-13T07:34:18.693Z,10.04
2022-10-13T07:39:49.558Z,10.12
2022-10-13T07:45:20.979Z,10.19
2022-10-13T07:50:52.614Z,10.19
2022-10-13T07:56:23.816Z,10.22
2022-10-13T08:01:55.118Z,10.26
2022-10-13T08:07:26.453Z,10.27
2022-10-13T08:12:57.614Z,10.29
2022-10-13T08:18:29.949Z,10.33
2022-10-13T08:24:00.741Z,10.37
2022-10-13T08:29:31.929Z,10.44
2022-10-13T08:35:04.382Z,10.49
2022-10-13T08:40:36.250Z,10.52
2022-10-13T08:46:09.310Z,10.57
2022-10-13T08:51:40.653Z,10.61
2022-10-13T08:57:12.581Z,10.67
2022-10-13T09:02:45.405Z,10.73
2022-10-13T09:08:20.339Z,10.78
2022-10-13T09:13:55.409Z,10.85
2022-10-13T09:19:34.378Z,10.90
2022-10-13T09:25:11.408Z,10.96
2022-10-13T09:30:44.293Z,11.04
2022-10-13T09:36:16.446Z,11.15
2022-10-13T09:41:51.351Z,11.25
2022-10-13T09:47:22.507Z,11.36
2022-10-13T09:53:30.213Z,11.47
2022-10-13T09:59:10.720Z,11.60
2022-10-13T10:04:43.510Z,11.70
2022-10-13T10:10:36.138Z,11.79
2022-10-13T10:16:30.442Z,11.89
2022-10-13T10:22:04.332Z,12.00
2022-10-13T10:27:56.679Z,12.08
2022-10-13T10:33:44.388Z,12.15
2022-10-13T10:39:18.775Z,12.25
2022-10-13T10:44:51.740Z,12.33
2022-10-13T10:50:23.983Z,12.41
2022-10-13T10:56:35.710Z,12.51
2022-10-13T11:02:07.530Z,12.60
2022-10-13T11:07:38.713Z,12.68
2022-10-13T11:13:17.681Z,12.73
2022-10-13T11:19:28.986Z,12.79
2022-10-13T11:25:42.038Z,12.84
2022-10-13T11:31:13.100Z,12.93
2022-10-13T11:36:50.364Z,13.04
2022-10-13T11:42:48.388Z,13.08
2022-10-13T11:48:41.233Z,13.13
2022-10-13T11:54:30.438Z,13.17
2022-10-13T12:00:01.550Z,13.19
2022-10-13T12:05:43.906Z,13.20
2022-10-13T12:11:30.630Z,13.23
2022-10-13T12:17:02.645Z,13.32
2022-10-13T12:22:36.839Z,13.34
2022-10-13T12:28:19.353Z,13.38
2022-10-13T12:34:01.958Z,13.42
2022-10-13T12:39:34.115Z,13.44
2022-10-13T12:45:05.694Z,13.48
2022-10-13T12:50:38.036Z,13.54
2022-10-13T12:56:19.464Z,13.58
2022-10-13T13:02:04.565Z,13.62
2022-10-13T13:07:37.650Z,13.62
2022-10-13T13:13:15.452Z,13.60
2022-10-13T13:18:47.796Z,13.60
2022-10-13T13:24:28.865Z,13.59
2022-10-13T13:30:17.027Z,13.59
2022-10-13T13:35:49.286Z,13.62
2022-10-13T13:41:21.395Z,13.64
2022-10-13T13:46:52.235Z,13.63
2022-10-13T13:52:24.458Z,13.62
2022-10-13T13:57:55.487Z,13.62
2022-10-13T14:03:26.672Z,13.61
2022-10-13T14:08:57.665Z,13.58
2022-10-13T14:14:31.837Z,13.54
2022-10-13T14:20:02.856Z,13.53
2022-10-13T14:25:34.364Z,13.52
2022-10-13T14:31:06.659Z,13.51
2022-10-13T14:36:40.012Z,13.49
2022-10-13T14:42:11.658Z,13.48
2022-10-13T14:47:43.013Z,13.45
2022-10-13T14:53:17.766Z,13.44
2022-10-13T14:58:50.522Z,13.40
2022-10-13T15:04:21.943Z,13.41
2022-10-13T15:10:04.333Z,13.38
2022-10-13T15:15:37.344Z,13.38
2022-10-13T15:21:08.463Z,13.41
2022-10-13T15:26:39.697Z,13.44
2022-10-13T15:32:18.737Z,13.46
2022-10-13T15:37:59.107Z,13.48
2022-10-13T15:43:30.007Z,13.46
2022-10-13T15:49:00.976Z,13.48
2022-10-13T15:54:31.979Z,13.47
2022-10-13T16:00:05.419Z,13.45
2022-10-13T16:05:44.416Z,13.40
2022-10-13T16:11:17.281Z,13.36
2022-10-13T16:16:48.320Z,13.33
2022-10-13T16:22:19.703Z,13.30
2022-10-13T16:27:51.025Z,13.25
2022-10-13T16:33:21.976Z,13.23
2022-10-13T16:38:55.139Z,13.20
2022-10-13T16:44:26.293Z,13.18
2022-10-13T16:49:57.141Z,13.15
2022-10-13T16:55:28.074Z,13.13
2022-10-13T17:01:08.941Z,13.12
2022-10-13T17:06:41.241Z,13.11
2022-10-13T17:12:12.226Z,13.09
2022-10-13T17:17:43.623Z,13.07
2022-10-13T17:23:17.453Z,13.06
2022-10-13T17:28:48.501Z,13.03
2022-10-13T17:34:19.875Z,13.04
2022-10-13T17:39:52.580Z,13.01
2022-10-13T17:45:25.248Z,13.01
2022-10-13T17:50:56.223Z,12.97
2022-10-13T17:56:27.979Z,12.96
2022-10-13T18:01:59.173Z,12.94
2022-10-13T18:07:30.314Z,12.93
2022-10-13T18:13:01.302Z,12.92
2022-10-13T18:18:33.028Z,12.92
2022-10-13T18:24:04.549Z,12.90
2022-10-13T18:29:35.936Z,12.89
2022-10-13T18:35:07.954Z,12.89
2022-10-13T18:40:39.200Z,12.87
2022-10-13T18:46:10.800Z,12.87
2022-10-13T18:51:41.774Z,12.86
2022-10-13T18:57:13.130Z,12.85
2022-10-13T19:02:44.359Z,12.83
2022-10-13T19:08:15.374Z,12.83
2022-10-13T19:13:47.638Z,12.82
2022-10-13T19:19:19.116Z,12.81
2022-10-13T19:24:50.951Z,12.79
2022-10-13T19:30:26.563Z,12.77
2022-10-13T19:35:57.611Z,12.76
2022-10-13T19:41:29.920Z,12.74
2022-10-13T19:47:00.719Z,12.71
2022-10-13T19:52:31.634Z,12.70
2022-10-13T19:58:02.923Z,12.68
2022-10-13T20:03:34.624Z,12.65
2022-10-13T20:09:06.332Z,12.64
2022-10-13T20:14:37.568Z,12.61
2022-10-13T20:20:09.011Z,12.56
2022-10-13T20:25:40.092Z,12.54
2022-10-13T20:31:12.978Z,12.51
2022-10-13T20:36:44.509Z,12.45
2022-10-13T20:42:15.542Z,12.41
2022-10-13T20:47:47.157Z,12.38
2022-10-13T20:53:18.294Z,12.36
2022-10-13T20:58:51.403Z,12.33
2022-10-13T21:04:22.445Z,12.30
2022-10-13T21:09:54.050Z,12.28
2022-10-13T21:15:25.736Z,12.25
2022-10-13T21:21:05.880Z,12.23
2022-10-13T21:26:38.433Z,12.19
2022-10-13T21:32:09.910Z,12.16
2022-10-13T21:37:41.096Z,12.14
2022-10-13T21:43:12.094Z,12.10
2022-10-13T21:48:44.280Z,12.07
2022-10-13T21:54:15.618Z,12.04
2022-10-13T21:59:47.270Z,12.02
2022-10-13T22:05:18.389Z,12.00
2022-10-13T22:10:57.278Z,11.97
2022-10-13T22:16:32.275Z,11.93
2022-10-13T22:22:03.639Z,11.92
2022-10-13T22:27:34.571Z,11.86
2022-10-13T22:33:05.886Z,11.84
2022-10-13T22:38:37.185Z,11.82
2022-10-13T22:44:10.211Z,11.81
2022-10-13T22:49:41.415Z,11.78
2022-10-13T22:55:13.887Z,11.76
2022-10-13T23:00:44.946Z,11.75
2022-10-13T23:06:17.401Z,11.73
2022-10-13T23:11:48.371Z,11.71
2022-10-13T23:17:24.369Z,11.71
2022-10-13T23:22:55.566Z,11.70
2022-10-13T23:28:26.848Z,11.68
2022-10-13T23:34:00.107Z,11.66
2022-10-13T23:39:31.590Z,11.63
2022-10-13T23:45:02.512Z,11.63
2022-10-13T23:50:34.235Z,11.61
2022-10-13T23:56:07.144Z,11.60
